sensor_id;sensor_type;location;lat;lon;timestamp;temperature;humidity
70986;DHT22;58645;43.068;25.610;2023-07-24T00:02:05;21.20;99.90
70986;DHT22;58645;43.068;25.610;2023-07-24T00:04:32;21.10;99.90
70986;DHT22;58645;43.068;25.610;2023-07-24T00:06:58;21.10;99.90
70986;DHT22;58645;43.068;25.610;2023-07-24T00:09:24;21.10;99.90
70986;DHT22;58645;43.068;25.610;2023-07-24T00:11:49;21.10;99.90
70986;DHT22;58645;43.068;25.610;2023-07-24T00:14:16;21.10;99.90
70986;DHT22;58645;43.068;25.610;2023-07-24T00:16:41;21.00;99.90
70986;DHT22;58645;43.068;25.610;2023-07-24T00:19:07;21.00;99.90
70986;DHT22;58645;43.068;25.610;2023-07-24T00:21:33;20.90;99.90
70986;DHT22;58645;43.068;25.610;2023-07-24T00:23:58;20.80;99.90
70986;DHT22;58645;43.068;25.610;2023-07-24T00:26:24;20.80;99.90
70986;DHT22;58645;43.068;25.610;2023-07-24T00:28:51;20.80;99.90
70986;DHT22;58645;43.068;25.610;2023-07-24T00:31:16;20.70;99.90
70986;DHT22;58645;43.068;25.610;2023-07-24T00:33:42;20.70;99.90
70986;DHT22;58645;43.068;25.610;2023-07-24T00:36:08;20.70;99.90
70986;DHT22;58645;43.068;25.610;2023-07-24T00:38:34;20.70;99.90
70986;DHT22;58645;43.068;25.610;2023-07-24T00:41:00;20.70;99.90
70986;DHT22;58645;43.068;25.610;2023-07-24T00:43:25;20.60;99.90
70986;DHT22;58645;43.068;25.610;2023-07-24T00:45:51;20.60;99.90
70986;DHT22;58645;43.068;25.610;2023-07-24T00:48:17;20.50;99.90
70986;DHT22;58645;43.068;25.610;2023-07-24T00:50:43;20.50;99.90
70986;DHT22;58645;43.068;25.610;2023-07-24T00:53:11;20.50;99.90
70986;DHT22;58645;43.068;25.610;2023-07-24T00:55:39;20.60;99.90
70986;DHT22;58645;43.068;25.610;2023-07-24T00:58:05;20.60;99.90
70986;DHT22;58645;43.068;25.610;2023-07-24T01:00:32;20.60;99.90
70986;DHT22;58645;43.068;25.610;2023-07-24T01:02:59;20.60;99.90
70986;DHT22;58645;43.068;25.610;2023-07-24T01:05:25;20.60;99.90
70986;DHT22;58645;43.068;25.610;2023-07-24T01:07:54;20.60;99.90
70986;DHT22;58645;43.068;25.610;2023-07-24T01:10:20;20.60;99.90
70986;DHT22;58645;43.068;25.610;2023-07-24T01:13:07;20.60;99.90
70986;DHT22;58645;43.068;25.610;2023-07-24T01:15:55;20.60;99.90
70986;DHT22;58645;43.068;25.610;2023-07-24T01:18:24;20.70;99.90
70986;DHT22;58645;43.068;25.610;2023-07-24T01:20:53;20.60;99.90
70986;DHT22;58645;43.068;25.610;2023-07-24T01:28:21;20.50;99.90
70986;DHT22;58645;43.068;25.610;2023-07-24T01:30:47;20.50;99.90
70986;DHT22;58645;43.068;25.610;2023-07-24T01:33:13;20.40;99.90
70986;DHT22;58645;43.068;25.610;2023-07-24T01:35:41;20.40;99.90
70986;DHT22;58645;43.068;25.610;2023-07-24T01:38:12;20.30;99.90
70986;DHT22;58645;43.068;25.610;2023-07-24T01:40:40;20.30;99.90
70986;DHT22;58645;43.068;25.610;2023-07-24T01:43:06;20.30;99.90
70986;DHT22;58645;43.068;25.610;2023-07-24T01:45:32;20.30;99.90
70986;DHT22;58645;43.068;25.610;2023-07-24T01:47:58;20.30;99.90
70986;DHT22;58645;43.068;25.610;2023-07-24T01:50:23;20.30;99.90
70986;DHT22;58645;43.068;25.610;2023-07-24T01:52:49;20.30;99.90
70986;DHT22;58645;43.068;25.610;2023-07-24T01:55:15;20.20;99.90
70986;DHT22;58645;43.068;25.610;2023-07-24T01:57:40;20.20;99.90
70986;DHT22;58645;43.068;25.610;2023-07-24T02:00:06;20.20;99.90
70986;DHT22;58645;43.068;25.610;2023-07-24T02:02:32;20.20;99.90
70986;DHT22;58645;43.068;25.610;2023-07-24T02:04:58;20.20;99.90
70986;DHT22;58645;43.068;25.610;2023-07-24T02:07:23;20.10;99.90
70986;DHT22;58645;43.068;25.610;2023-07-24T02:09:50;20.10;99.90
70986;DHT22;58645;43.068;25.610;2023-07-24T02:12:15;20.10;99.90
70986;DHT22;58645;43.068;25.610;2023-07-24T02:14:41;20.20;99.90
70986;DHT22;58645;43.068;25.610;2023-07-24T02:17:07;20.10;99.90
70986;DHT22;58645;43.068;25.610;2023-07-24T02:19:32;20.10;99.90
70986;DHT22;58645;43.068;25.610;2023-07-24T02:21:58;20.00;99.90
70986;DHT22;58645;43.068;25.610;2023-07-24T02:24:24;20.00;99.90
70986;DHT22;58645;43.068;25.610;2023-07-24T02:26:49;20.00;99.90
70986;DHT22;58645;43.068;25.610;2023-07-24T02:29:15;19.90;99.90
70986;DHT22;58645;43.068;25.610;2023-07-24T02:31:41;19.90;99.90
70986;DHT22;58645;43.068;25.610;2023-07-24T02:34:07;19.80;99.90
70986;DHT22;58645;43.068;25.610;2023-07-24T02:36:32;19.70;99.90
70986;DHT22;58645;43.068;25.610;2023-07-24T02:38:58;19.70;99.90
70986;DHT22;58645;43.068;25.610;2023-07-24T02:41:24;19.60;99.90
70986;DHT22;58645;43.068;25.610;2023-07-24T02:43:49;19.60;99.90
70986;DHT22;58645;43.068;25.610;2023-07-24T02:46:15;19.60;99.90
70986;DHT22;58645;43.068;25.610;2023-07-24T02:48:41;19.60;99.90
70986;DHT22;58645;43.068;25.610;2023-07-24T02:51:06;19.60;99.90
70986;DHT22;58645;43.068;25.610;2023-07-24T02:53:32;19.60;99.90
70986;DHT22;58645;43.068;25.610;2023-07-24T02:55:58;19.60;99.90
70986;DHT22;58645;43.068;25.610;2023-07-24T02:58:23;19.60;99.90
70986;DHT22;58645;43.068;25.610;2023-07-24T03:00:49;19.60;99.90
70986;DHT22;58645;43.068;25.610;2023-07-24T03:03:15;19.60;99.90
70986;DHT22;58645;43.068;25.610;2023-07-24T03:05:40;19.60;99.90
70986;DHT22;58645;43.068;25.610;2023-07-24T03:08:06;19.50;99.90
70986;DHT22;58645;43.068;25.610;2023-07-24T03:10:32;19.50;99.90
70986;DHT22;58645;43.068;25.610;2023-07-24T03:12:57;19.50;99.90
70986;DHT22;58645;43.068;25.610;2023-07-24T03:15:23;19.40;99.90
70986;DHT22;58645;43.068;25.610;2023-07-24T03:17:49;19.40;99.90
70986;DHT22;58645;43.068;25.610;2023-07-24T03:20:16;19.40;99.90
70986;DHT22;58645;43.068;25.610;2023-07-24T03:22:42;19.40;99.90
70986;DHT22;58645;43.068;25.610;2023-07-24T03:25:08;19.40;99.90
70986;DHT22;58645;43.068;25.610;2023-07-24T03:27:34;19.40;99.90
70986;DHT22;58645;43.068;25.610;2023-07-24T03:30:00;19.30;99.90
70986;DHT22;58645;43.068;25.610;2023-07-24T03:32:26;19.30;99.90
70986;DHT22;58645;43.068;25.610;2023-07-24T03:34:51;19.20;99.90
70986;DHT22;58645;43.068;25.610;2023-07-24T03:37:18;19.30;99.90
70986;DHT22;58645;43.068;25.610;2023-07-24T03:39:43;19.40;99.90
70986;DHT22;58645;43.068;25.610;2023-07-24T03:42:23;19.50;99.90
70986;DHT22;58645;43.068;25.610;2023-07-24T03:44:49;19.50;99.90
70986;DHT22;58645;43.068;25.610;2023-07-24T03:47:15;19.50;99.90
70986;DHT22;58645;43.068;25.610;2023-07-24T03:49:40;19.60;99.90
70986;DHT22;58645;43.068;25.610;2023-07-24T03:52:06;19.70;99.90
70986;DHT22;58645;43.068;25.610;2023-07-24T03:54:32;19.80;99.90
70986;DHT22;58645;43.068;25.610;2023-07-24T03:56:57;19.80;99.90
70986;DHT22;58645;43.068;25.610;2023-07-24T03:59:23;19.80;99.90
70986;DHT22;58645;43.068;25.610;2023-07-24T04:01:49;19.90;99.90
70986;DHT22;58645;43.068;25.610;2023-07-24T04:04:14;19.90;99.90
70986;DHT22;58645;43.068;25.610;2023-07-24T04:06:40;20.00;99.90
70986;DHT22;58645;43.068;25.610;2023-07-24T04:09:06;20.10;99.90
70986;DHT22;58645;43.068;25.610;2023-07-24T04:11:32;20.20;99.90
70986;DHT22;58645;43.068;25.610;2023-07-24T04:13:58;20.30;99.90
70986;DHT22;58645;43.068;25.610;2023-07-24T04:16:23;20.40;99.90
70986;DHT22;58645;43.068;25.610;2023-07-24T04:18:49;20.50;99.90
70986;DHT22;58645;43.068;25.610;2023-07-24T04:21:14;20.60;99.90
70986;DHT22;58645;43.068;25.610;2023-07-24T04:23:40;20.70;99.90
70986;DHT22;58645;43.068;25.610;2023-07-24T04:26:06;20.80;99.90
70986;DHT22;58645;43.068;25.610;2023-07-24T04:28:32;20.90;99.90
70986;DHT22;58645;43.068;25.610;2023-07-24T04:31:00;21.00;99.90
70986;DHT22;58645;43.068;25.610;2023-07-24T04:33:27;21.10;99.90
70986;DHT22;58645;43.068;25.610;2023-07-24T04:35:54;21.20;99.90
70986;DHT22;58645;43.068;25.610;2023-07-24T04:38:21;21.40;99.90
70986;DHT22;58645;43.068;25.610;2023-07-24T04:40:46;21.40;99.90
70986;DHT22;58645;43.068;25.610;2023-07-24T04:43:12;21.50;99.90
70986;DHT22;58645;43.068;25.610;2023-07-24T04:45:38;21.70;99.90
70986;DHT22;58645;43.068;25.610;2023-07-24T04:48:04;21.80;99.90
70986;DHT22;58645;43.068;25.610;2023-07-24T04:50:30;21.90;99.90
70986;DHT22;58645;43.068;25.610;2023-07-24T04:52:56;22.00;99.90
70986;DHT22;58645;43.068;25.610;2023-07-24T04:55:22;22.10;99.90
70986;DHT22;58645;43.068;25.610;2023-07-24T04:57:48;22.10;99.90
70986;DHT22;58645;43.068;25.610;2023-07-24T05:00:14;22.20;99.90
70986;DHT22;58645;43.068;25.610;2023-07-24T05:02:40;22.30;99.90
70986;DHT22;58645;43.068;25.610;2023-07-24T05:05:06;22.40;99.90
70986;DHT22;58645;43.068;25.610;2023-07-24T05:07:34;22.50;99.90
70986;DHT22;58645;43.068;25.610;2023-07-24T05:10:00;22.70;99.90
70986;DHT22;58645;43.068;25.610;2023-07-24T05:12:26;22.90;99.90
70986;DHT22;58645;43.068;25.610;2023-07-24T05:14:52;23.00;99.90
70986;DHT22;58645;43.068;25.610;2023-07-24T05:17:17;23.20;99.90
70986;DHT22;58645;43.068;25.610;2023-07-24T05:19:43;23.40;99.90
70986;DHT22;58645;43.068;25.610;2023-07-24T05:22:09;23.40;99.90
70986;DHT22;58645;43.068;25.610;2023-07-24T05:24:38;23.70;99.90
70986;DHT22;58645;43.068;25.610;2023-07-24T05:27:07;23.80;99.90
70986;DHT22;58645;43.068;25.610;2023-07-24T05:29:33;24.00;99.90
70986;DHT22;58645;43.068;25.610;2023-07-24T05:31:59;24.20;99.90
70986;DHT22;58645;43.068;25.610;2023-07-24T05:34:25;24.40;99.90
70986;DHT22;58645;43.068;25.610;2023-07-24T05:36:51;24.60;99.90
70986;DHT22;58645;43.068;25.610;2023-07-24T05:39:17;24.70;99.90
70986;DHT22;58645;43.068;25.610;2023-07-24T05:41:43;24.90;99.90
70986;DHT22;58645;43.068;25.610;2023-07-24T05:44:08;25.00;99.90
70986;DHT22;58645;43.068;25.610;2023-07-24T05:46:35;25.10;99.90
70986;DHT22;58645;43.068;25.610;2023-07-24T05:49:00;25.30;99.90
70986;DHT22;58645;43.068;25.610;2023-07-24T05:51:27;25.50;99.90
70986;DHT22;58645;43.068;25.610;2023-07-24T05:53:53;25.90;99.90
70986;DHT22;58645;43.068;25.610;2023-07-24T05:56:19;25.90;99.90
70986;DHT22;58645;43.068;25.610;2023-07-24T05:58:44;26.30;99.90
70986;DHT22;58645;43.068;25.610;2023-07-24T06:01:10;26.40;99.90
70986;DHT22;58645;43.068;25.610;2023-07-24T06:03:36;26.60;99.80
70986;DHT22;58645;43.068;25.610;2023-07-24T06:06:02;26.80;99.60
70986;DHT22;58645;43.068;25.610;2023-07-24T06:08:27;27.00;98.20
70986;DHT22;58645;43.068;25.610;2023-07-24T06:10:53;27.10;96.80
70986;DHT22;58645;43.068;25.610;2023-07-24T06:13:19;27.40;94.60
70986;DHT22;58645;43.068;25.610;2023-07-24T06:15:46;27.60;95.40
70986;DHT22;58645;43.068;25.610;2023-07-24T06:18:12;27.80;92.40
70986;DHT22;58645;43.068;25.610;2023-07-24T06:20:38;28.30;90.00
70986;DHT22;58645;43.068;25.610;2023-07-24T06:23:03;28.50;87.20
70986;DHT22;58645;43.068;25.610;2023-07-24T06:25:30;28.60;85.90
70986;DHT22;58645;43.068;25.610;2023-07-24T06:27:57;29.10;84.80
70986;DHT22;58645;43.068;25.610;2023-07-24T06:30:23;29.70;84.60
70986;DHT22;58645;43.068;25.610;2023-07-24T06:32:48;30.30;81.40
70986;DHT22;58645;43.068;25.610;2023-07-24T06:35:14;30.70;79.20
70986;DHT22;58645;43.068;25.610;2023-07-24T06:37:40;30.90;77.70
70986;DHT22;58645;43.068;25.610;2023-07-24T06:40:07;31.20;75.30
70986;DHT22;58645;43.068;25.610;2023-07-24T06:42:33;31.40;72.50
70986;DHT22;58645;43.068;25.610;2023-07-24T06:44:58;31.70;71.40
70986;DHT22;58645;43.068;25.610;2023-07-24T06:47:24;32.00;69.40
70986;DHT22;58645;43.068;25.610;2023-07-24T06:49:50;32.00;67.70
70986;DHT22;58645;43.068;25.610;2023-07-24T06:52:16;32.50;66.70
70986;DHT22;58645;43.068;25.610;2023-07-24T06:54:41;33.00;65.30
70986;DHT22;58645;43.068;25.610;2023-07-24T06:57:07;33.00;64.20
70986;DHT22;58645;43.068;25.610;2023-07-24T06:59:33;33.00;63.20
70986;DHT22;58645;43.068;25.610;2023-07-24T07:01:58;33.10;63.20
70986;DHT22;58645;43.068;25.610;2023-07-24T07:04:24;33.40;61.60
70986;DHT22;58645;43.068;25.610;2023-07-24T07:06:50;33.50;61.30
70986;DHT22;58645;43.068;25.610;2023-07-24T07:09:16;33.80;60.10
70986;DHT22;58645;43.068;25.610;2023-07-24T07:11:41;34.00;59.20
70986;DHT22;58645;43.068;25.610;2023-07-24T07:14:09;34.30;58.70
70986;DHT22;58645;43.068;25.610;2023-07-24T07:16:34;34.40;58.30
70986;DHT22;58645;43.068;25.610;2023-07-24T07:19:00;34.60;58.40
70986;DHT22;58645;43.068;25.610;2023-07-24T07:21:26;34.70;56.50
70986;DHT22;58645;43.068;25.610;2023-07-24T07:23:52;34.60;54.50
70986;DHT22;58645;43.068;25.610;2023-07-24T07:26:18;34.50;55.50
70986;DHT22;58645;43.068;25.610;2023-07-24T07:28:43;34.70;55.10
70986;DHT22;58645;43.068;25.610;2023-07-24T07:31:10;34.80;55.70
70986;DHT22;58645;43.068;25.610;2023-07-24T07:33:36;35.20;54.20
70986;DHT22;58645;43.068;25.610;2023-07-24T07:36:02;35.30;52.80
70986;DHT22;58645;43.068;25.610;2023-07-24T07:38:29;35.60;52.70
70986;DHT22;58645;43.068;25.610;2023-07-24T07:40:55;35.90;52.60
70986;DHT22;58645;43.068;25.610;2023-07-24T07:43:21;36.00;51.50
70986;DHT22;58645;43.068;25.610;2023-07-24T07:45:47;36.40;51.00
70986;DHT22;58645;43.068;25.610;2023-07-24T07:48:13;36.70;49.50
70986;DHT22;58645;43.068;25.610;2023-07-24T07:50:38;36.70;47.50
70986;DHT22;58645;43.068;25.610;2023-07-24T07:53:04;37.00;47.90
70986;DHT22;58645;43.068;25.610;2023-07-24T07:55:30;36.90;45.50
70986;DHT22;58645;43.068;25.610;2023-07-24T07:57:56;37.10;46.60
70986;DHT22;58645;43.068;25.610;2023-07-24T08:00:22;37.00;45.70
70986;DHT22;58645;43.068;25.610;2023-07-24T08:02:48;37.20;45.30
70986;DHT22;58645;43.068;25.610;2023-07-24T08:05:13;36.90;43.90
70986;DHT22;58645;43.068;25.610;2023-07-24T08:07:39;36.60;44.10
70986;DHT22;58645;43.068;25.610;2023-07-24T08:10:05;36.30;44.30
70986;DHT22;58645;43.068;25.610;2023-07-24T08:12:32;36.20;46.80
70986;DHT22;58645;43.068;25.610;2023-07-24T08:14:57;36.60;44.70
70986;DHT22;58645;43.068;25.610;2023-07-24T08:17:23;36.40;44.20
70986;DHT22;58645;43.068;25.610;2023-07-24T08:19:49;36.70;44.50
70986;DHT22;58645;43.068;25.610;2023-07-24T08:22:15;36.90;44.00
70986;DHT22;58645;43.068;25.610;2023-07-24T08:24:40;37.10;45.60
70986;DHT22;58645;43.068;25.610;2023-07-24T08:27:06;37.10;42.40
70986;DHT22;58645;43.068;25.610;2023-07-24T08:29:32;37.20;41.60
70986;DHT22;58645;43.068;25.610;2023-07-24T08:31:58;37.10;40.40
70986;DHT22;58645;43.068;25.610;2023-07-24T08:34:24;36.90;39.80
70986;DHT22;58645;43.068;25.610;2023-07-24T08:36:50;36.90;39.90
70986;DHT22;58645;43.068;25.610;2023-07-24T08:39:16;37.10;38.40
70986;DHT22;58645;43.068;25.610;2023-07-24T08:41:42;37.50;38.30
70986;DHT22;58645;43.068;25.610;2023-07-24T08:44:08;37.60;36.70
70986;DHT22;58645;43.068;25.610;2023-07-24T08:46:39;38.00;38.40
70986;DHT22;58645;43.068;25.610;2023-07-24T08:49:11;38.20;40.20
70986;DHT22;58645;43.068;25.610;2023-07-24T08:51:37;38.30;38.20
70986;DHT22;58645;43.068;25.610;2023-07-24T08:54:04;38.70;37.90
70986;DHT22;58645;43.068;25.610;2023-07-24T08:56:31;38.90;37.20
70986;DHT22;58645;43.068;25.610;2023-07-24T08:58:56;38.90;38.60
70986;DHT22;58645;43.068;25.610;2023-07-24T09:01:22;39.00;38.20
70986;DHT22;58645;43.068;25.610;2023-07-24T09:03:48;39.10;37.70
70986;DHT22;58645;43.068;25.610;2023-07-24T09:06:13;39.20;36.20
70986;DHT22;58645;43.068;25.610;2023-07-24T09:08:41;39.20;35.70
70986;DHT22;58645;43.068;25.610;2023-07-24T09:11:07;39.30;36.60
70986;DHT22;58645;43.068;25.610;2023-07-24T09:13:35;39.60;36.20
70986;DHT22;58645;43.068;25.610;2023-07-24T09:16:01;39.80;35.00
70986;DHT22;58645;43.068;25.610;2023-07-24T09:18:41;39.60;33.30
70986;DHT22;58645;43.068;25.610;2023-07-24T09:21:08;39.80;34.20
70986;DHT22;58645;43.068;25.610;2023-07-24T09:23:34;40.00;33.40
70986;DHT22;58645;43.068;25.610;2023-07-24T09:26:05;39.90;34.80
70986;DHT22;58645;43.068;25.610;2023-07-24T09:28:31;39.60;33.50
70986;DHT22;58645;43.068;25.610;2023-07-24T09:30:58;39.50;32.60
70986;DHT22;58645;43.068;25.610;2023-07-24T09:33:39;39.00;33.40
70986;DHT22;58645;43.068;25.610;2023-07-24T09:36:07;39.30;33.60
70986;DHT22;58645;43.068;25.610;2023-07-24T09:38:34;39.40;34.50
70986;DHT22;58645;43.068;25.610;2023-07-24T09:41:02;39.70;37.00
70986;DHT22;58645;43.068;25.610;2023-07-24T09:43:29;39.80;34.70
70986;DHT22;58645;43.068;25.610;2023-07-24T09:45:56;39.90;33.10
70986;DHT22;58645;43.068;25.610;2023-07-24T09:48:26;39.40;32.50
70986;DHT22;58645;43.068;25.610;2023-07-24T09:50:56;39.60;32.10
70986;DHT22;58645;43.068;25.610;2023-07-24T09:54:00;39.60;32.60
70986;DHT22;58645;43.068;25.610;2023-07-24T09:56:27;39.40;33.40
70986;DHT22;58645;43.068;25.610;2023-07-24T09:58:54;39.50;31.90
70986;DHT22;58645;43.068;25.610;2023-07-24T10:01:21;39.00;32.40
70986;DHT22;58645;43.068;25.610;2023-07-24T10:03:49;38.50;30.80
70986;DHT22;58645;43.068;25.610;2023-07-24T10:06:15;38.40;30.90
70986;DHT22;58645;43.068;25.610;2023-07-24T10:08:41;38.10;31.00
70986;DHT22;58645;43.068;25.610;2023-07-24T10:11:09;38.30;28.70
70986;DHT22;58645;43.068;25.610;2023-07-24T10:13:36;38.80;27.80
70986;DHT22;58645;43.068;25.610;2023-07-24T10:16:04;39.40;28.40
70986;DHT22;58645;43.068;25.610;2023-07-24T10:18:33;39.10;28.80
70986;DHT22;58645;43.068;25.610;2023-07-24T10:23:27;38.70;28.20
70986;DHT22;58645;43.068;25.610;2023-07-24T10:25:52;39.20;30.00
70986;DHT22;58645;43.068;25.610;2023-07-24T10:28:18;39.60;25.60
70986;DHT22;58645;43.068;25.610;2023-07-24T10:30:44;39.40;27.00
70986;DHT22;58645;43.068;25.610;2023-07-24T10:33:18;39.40;26.60
70986;DHT22;58645;43.068;25.610;2023-07-24T10:35:54;38.90;26.00
70986;DHT22;58645;43.068;25.610;2023-07-24T10:38:20;38.30;27.20
70986;DHT22;58645;43.068;25.610;2023-07-24T10:41:01;38.20;30.00
70986;DHT22;58645;43.068;25.610;2023-07-24T10:43:27;38.00;29.90
70986;DHT22;58645;43.068;25.610;2023-07-24T10:45:54;38.70;30.20
70986;DHT22;58645;43.068;25.610;2023-07-24T10:48:21;39.00;30.40
70986;DHT22;58645;43.068;25.610;2023-07-24T10:50:49;38.90;29.60
70986;DHT22;58645;43.068;25.610;2023-07-24T10:53:17;39.20;29.60
70986;DHT22;58645;43.068;25.610;2023-07-24T10:55:43;39.00;29.80
70986;DHT22;58645;43.068;25.610;2023-07-24T10:58:10;39.40;29.80
70986;DHT22;58645;43.068;25.610;2023-07-24T11:00:38;39.80;27.80
70986;DHT22;58645;43.068;25.610;2023-07-24T11:03:04;39.40;25.50
70986;DHT22;58645;43.068;25.610;2023-07-24T11:05:31;39.20;25.70
70986;DHT22;58645;43.068;25.610;2023-07-24T11:07:58;39.40;26.60
70986;DHT22;58645;43.068;25.610;2023-07-24T11:10:23;39.60;26.50
70986;DHT22;58645;43.068;25.610;2023-07-24T11:12:49;39.60;25.20
70986;DHT22;58645;43.068;25.610;2023-07-24T11:15:25;39.80;26.20
70986;DHT22;58645;43.068;25.610;2023-07-24T11:17:54;39.90;26.10
70986;DHT22;58645;43.068;25.610;2023-07-24T11:20:20;40.00;25.10
70986;DHT22;58645;43.068;25.610;2023-07-24T11:22:46;40.20;26.00
70986;DHT22;58645;43.068;25.610;2023-07-24T11:25:12;40.10;26.60
70986;DHT22;58645;43.068;25.610;2023-07-24T11:27:42;40.00;25.80
70986;DHT22;58645;43.068;25.610;2023-07-24T11:30:12;40.10;27.60
70986;DHT22;58645;43.068;25.610;2023-07-24T11:32:39;40.10;26.10
70986;DHT22;58645;43.068;25.610;2023-07-24T11:35:06;39.80;25.00
70986;DHT22;58645;43.068;25.610;2023-07-24T11:37:36;40.00;26.10
70986;DHT22;58645;43.068;25.610;2023-07-24T11:40:04;40.20;27.20
70986;DHT22;58645;43.068;25.610;2023-07-24T11:42:46;39.80;23.10
70986;DHT22;58645;43.068;25.610;2023-07-24T11:45:12;39.60;24.80
70986;DHT22;58645;43.068;25.610;2023-07-24T11:47:46;39.80;24.00
70986;DHT22;58645;43.068;25.610;2023-07-24T11:50:13;39.60;25.40
70986;DHT22;58645;43.068;25.610;2023-07-24T11:52:44;39.40;24.80
70986;DHT22;58645;43.068;25.610;2023-07-24T11:55:11;39.40;25.00
70986;DHT22;58645;43.068;25.610;2023-07-24T11:57:37;39.20;26.40
70986;DHT22;58645;43.068;25.610;2023-07-24T12:00:04;39.30;25.80
70986;DHT22;58645;43.068;25.610;2023-07-24T12:02:32;39.40;25.20
70986;DHT22;58645;43.068;25.610;2023-07-24T12:04:59;39.20;24.60
70986;DHT22;58645;43.068;25.610;2023-07-24T12:07:33;39.00;26.90
70986;DHT22;58645;43.068;25.610;2023-07-24T12:10:04;38.70;24.60
70986;DHT22;58645;43.068;25.610;2023-07-24T12:12:47;38.40;26.60
70986;DHT22;58645;43.068;25.610;2023-07-24T12:15:14;37.90;26.60
70986;DHT22;58645;43.068;25.610;2023-07-24T12:17:40;38.10;28.60
70986;DHT22;58645;43.068;25.610;2023-07-24T12:20:07;38.30;27.20
70986;DHT22;58645;43.068;25.610;2023-07-24T12:22:36;38.60;27.70
70986;DHT22;58645;43.068;25.610;2023-07-24T12:25:03;38.70;27.20
70986;DHT22;58645;43.068;25.610;2023-07-24T12:27:30;38.40;29.00
70986;DHT22;58645;43.068;25.610;2023-07-24T12:29:56;38.70;27.70
70986;DHT22;58645;43.068;25.610;2023-07-24T12:32:22;38.80;27.70
70986;DHT22;58645;43.068;25.610;2023-07-24T12:34:49;38.80;26.80
70986;DHT22;58645;43.068;25.610;2023-07-24T12:37:17;38.50;27.80
70986;DHT22;58645;43.068;25.610;2023-07-24T12:39:47;38.50;27.60
70986;DHT22;58645;43.068;25.610;2023-07-24T12:42:14;38.30;27.90
70986;DHT22;58645;43.068;25.610;2023-07-24T12:44:40;38.10;28.40
70986;DHT22;58645;43.068;25.610;2023-07-24T12:47:06;38.30;27.70
70986;DHT22;58645;43.068;25.610;2023-07-24T12:49:32;38.00;28.40
70986;DHT22;58645;43.068;25.610;2023-07-24T12:51:57;37.90;28.30
70986;DHT22;58645;43.068;25.610;2023-07-24T12:54:23;38.00;29.50
70986;DHT22;58645;43.068;25.610;2023-07-24T12:56:50;38.10;28.70
70986;DHT22;58645;43.068;25.610;2023-07-24T12:59:17;38.10;29.20
70986;DHT22;58645;43.068;25.610;2023-07-24T13:01:43;37.90;28.40
70986;DHT22;58645;43.068;25.610;2023-07-24T13:04:09;38.00;28.50
70986;DHT22;58645;43.068;25.610;2023-07-24T13:06:35;37.90;28.60
70986;DHT22;58645;43.068;25.610;2023-07-24T13:09:00;38.00;30.50
70986;DHT22;58645;43.068;25.610;2023-07-24T13:11:26;37.70;29.00
70986;DHT22;58645;43.068;25.610;2023-07-24T13:13:54;37.70;29.20
70986;DHT22;58645;43.068;25.610;2023-07-24T13:16:20;37.50;29.00
70986;DHT22;58645;43.068;25.610;2023-07-24T13:18:46;37.40;29.80
70986;DHT22;58645;43.068;25.610;2023-07-24T13:21:11;37.30;29.00
70986;DHT22;58645;43.068;25.610;2023-07-24T13:23:37;37.20;29.80
70986;DHT22;58645;43.068;25.610;2023-07-24T13:26:03;36.90;29.70
70986;DHT22;58645;43.068;25.610;2023-07-24T13:28:29;36.80;29.00
70986;DHT22;58645;43.068;25.610;2023-07-24T13:30:55;36.70;30.00
70986;DHT22;58645;43.068;25.610;2023-07-24T13:33:21;36.50;30.70
70986;DHT22;58645;43.068;25.610;2023-07-24T13:35:48;36.30;30.40
70986;DHT22;58645;43.068;25.610;2023-07-24T13:38:14;36.10;30.00
70986;DHT22;58645;43.068;25.610;2023-07-24T13:40:40;35.90;30.60
70986;DHT22;58645;43.068;25.610;2023-07-24T13:43:06;35.80;30.60
70986;DHT22;58645;43.068;25.610;2023-07-24T13:45:31;35.60;31.90
70986;DHT22;58645;43.068;25.610;2023-07-24T13:47:57;35.60;31.30
70986;DHT22;58645;43.068;25.610;2023-07-24T13:50:27;35.50;30.80
70986;DHT22;58645;43.068;25.610;2023-07-24T13:52:53;35.30;30.60
70986;DHT22;58645;43.068;25.610;2023-07-24T13:55:19;35.20;31.70
70986;DHT22;58645;43.068;25.610;2023-07-24T13:57:45;35.00;32.30
70986;DHT22;58645;43.068;25.610;2023-07-24T14:00:11;34.90;31.50
70986;DHT22;58645;43.068;25.610;2023-07-24T14:02:36;34.80;32.50
70986;DHT22;58645;43.068;25.610;2023-07-24T14:05:02;34.80;32.60
70986;DHT22;58645;43.068;25.610;2023-07-24T14:07:28;34.60;32.60
70986;DHT22;58645;43.068;25.610;2023-07-24T14:09:54;34.60;33.10
70986;DHT22;58645;43.068;25.610;2023-07-24T14:12:19;34.50;33.50
70986;DHT22;58645;43.068;25.610;2023-07-24T14:14:45;34.10;32.90
70986;DHT22;58645;43.068;25.610;2023-07-24T14:17:11;34.30;33.10
70986;DHT22;58645;43.068;25.610;2023-07-24T14:19:36;34.30;34.10
70986;DHT22;58645;43.068;25.610;2023-07-24T14:22:03;34.10;33.20
70986;DHT22;58645;43.068;25.610;2023-07-24T14:24:28;34.00;34.00
70986;DHT22;58645;43.068;25.610;2023-07-24T14:26:54;33.90;33.30
70986;DHT22;58645;43.068;25.610;2023-07-24T14:29:20;33.90;34.40
70986;DHT22;58645;43.068;25.610;2023-07-24T14:31:45;34.00;34.40
70986;DHT22;58645;43.068;25.610;2023-07-24T14:34:11;33.90;34.00
70986;DHT22;58645;43.068;25.610;2023-07-24T14:36:38;33.90;34.60
70986;DHT22;58645;43.068;25.610;2023-07-24T14:39:05;33.80;34.40
70986;DHT22;58645;43.068;25.610;2023-07-24T14:41:31;33.70;34.10
70986;DHT22;58645;43.068;25.610;2023-07-24T14:43:57;33.60;34.60
70986;DHT22;58645;43.068;25.610;2023-07-24T14:46:22;33.60;34.70
70986;DHT22;58645;43.068;25.610;2023-07-24T14:48:49;33.60;35.80
70986;DHT22;58645;43.068;25.610;2023-07-24T14:51:15;33.70;35.70
70986;DHT22;58645;43.068;25.610;2023-07-24T14:53:40;33.70;35.50
70986;DHT22;58645;43.068;25.610;2023-07-24T14:56:06;33.60;34.60
70986;DHT22;58645;43.068;25.610;2023-07-24T14:58:32;33.60;33.90
70986;DHT22;58645;43.068;25.610;2023-07-24T15:00:57;33.60;34.60
70986;DHT22;58645;43.068;25.610;2023-07-24T15:03:24;33.50;34.10
70986;DHT22;58645;43.068;25.610;2023-07-24T15:05:49;33.40;35.20
70986;DHT22;58645;43.068;25.610;2023-07-24T15:08:15;33.30;35.10
70986;DHT22;58645;43.068;25.610;2023-07-24T15:10:42;33.30;34.80
70986;DHT22;58645;43.068;25.610;2023-07-24T15:13:09;33.20;34.70
70986;DHT22;58645;43.068;25.610;2023-07-24T15:15:35;33.20;34.50
70986;DHT22;58645;43.068;25.610;2023-07-24T15:18:01;33.20;35.10
70986;DHT22;58645;43.068;25.610;2023-07-24T15:20:27;33.20;35.70